Amanda, Ohio
Current Conditions -  °F | °C
As of 7:53 PM on Saturday 25 Oct 2014 (Local Time) from KLHQ Reporting Station
Clear Clear  
Wind Chill: 64°   Ceiling: Unl
Heat Index: 64°   Visibility: 10mi
Dew Point: 53°   Wind: 8mph
Humidity: 67%   Direction: 250°WSW
Pressure: 29.84"   Gusts: NA
Location:  39.65°N, 82.74°W
Report Text: KLHQ 252353Z AUTO 25007KT 10SM CLR 18/12 A2984 RMK AO2 SLP104 T01780117 10217 20178 56006
Loading
Personal Weather Stations






























Interactive Weather Map
Tropical Storm Tracking
New forecast layout! Learn more

10-Day Weather Forecast

Advertisements
Track Severe Weather on mobile